createdAt,value
2023-02-11T00:03:19.598Z,23.23
2023-02-11T00:07:21.278Z,23.15
2023-02-11T00:11:26.355Z,22.52
2023-02-11T00:15:28.000Z,21.58
2023-02-11T00:19:29.636Z,22.77
2023-02-11T00:23:31.314Z,20.55
2023-02-11T00:27:32.971Z,21.20
2023-02-11T00:31:34.968Z,20.48
2023-02-11T00:35:38.519Z,20.30
2023-02-11T00:39:40.196Z,18.87
2023-02-11T00:43:42.166Z,19.12
2023-02-11T00:47:43.835Z,18.98
2023-02-11T00:51:45.500Z,18.83
2023-02-11T00:55:47.362Z,18.45
2023-02-11T00:59:50.458Z,19.83
2023-02-11T01:03:52.162Z,18.77
2023-02-11T01:07:53.854Z,20.15
2023-02-11T01:11:55.673Z,18.65
2023-02-11T01:15:57.527Z,19.48
2023-02-11T01:19:59.242Z,19.45
2023-02-11T01:24:00.957Z,19.92
2023-02-11T01:28:02.674Z,21.00
2023-02-11T01:32:04.518Z,20.75
2023-02-11T01:36:07.153Z,20.42
2023-02-11T01:40:15.508Z,20.90
2023-02-11T01:44:37.387Z,20.17
2023-02-11T01:48:43.806Z,20.98
2023-02-11T01:52:47.799Z,19.90
2023-02-11T01:57:11.266Z,20.12
2023-02-11T02:01:17.052Z,19.85
2023-02-11T02:05:40.079Z,17.70
2023-02-11T02:09:48.112Z,19.62
2023-02-11T02:13:49.878Z,19.50
2023-02-11T02:18:07.429Z,19.60
2023-02-11T02:26:44.268Z,18.33
2023-02-11T02:31:00.572Z,18.80
2023-02-11T02:35:13.052Z,19.15
2023-02-11T02:39:20.380Z,18.15
2023-02-11T02:43:23.738Z,18.20
2023-02-11T02:47:25.455Z,18.92
2023-02-11T02:51:39.177Z,17.17
2023-02-11T02:56:18.443Z,18.05
2023-02-11T03:01:03.115Z,18.10
2023-02-11T03:05:29.120Z,18.62
2023-02-11T03:09:54.677Z,17.52
2023-02-11T03:13:58.463Z,16.55
2023-02-11T03:18:03.308Z,17.12
2023-02-11T03:22:10.403Z,17.80
2023-02-11T03:26:23.419Z,16.37
2023-02-11T03:30:38.929Z,16.23
2023-02-11T03:35:03.340Z,16.12
2023-02-11T03:39:06.576Z,17.52
2023-02-11T03:43:36.964Z,17.33
2023-02-11T03:47:41.437Z,16.48
2023-02-11T03:51:43.941Z,15.60
2023-02-11T03:55:47.947Z,17.10
2023-02-11T03:59:57.772Z,17.15
2023-02-11T04:03:59.429Z,16.75
2023-02-11T04:08:01.330Z,15.98
2023-02-11T04:12:03.335Z,16.52
2023-02-11T04:16:05.304Z,17.00
2023-02-11T04:20:07.864Z,16.95
2023-02-11T04:24:09.555Z,16.73
2023-02-11T04:28:11.283Z,17.15
2023-02-11T04:32:13.796Z,17.60
2023-02-11T04:36:15.473Z,17.42
2023-02-11T04:40:17.323Z,18.45
2023-02-11T04:44:18.992Z,17.55
2023-02-11T04:48:20.677Z,19.42
2023-02-11T04:52:22.397Z,20.00
2023-02-11T04:56:24.284Z,19.73
2023-02-11T05:00:26.076Z,20.33
2023-02-11T05:04:27.929Z,20.58
2023-02-11T05:08:29.960Z,21.12
2023-02-11T05:12:31.632Z,20.23
2023-02-11T05:16:33.608Z,20.15
2023-02-11T05:20:37.535Z,20.60
2023-02-11T05:24:39.278Z,19.58
2023-02-11T05:28:41.459Z,21.48
2023-02-11T05:32:43.194Z,22.60
2023-02-11T05:36:44.934Z,21.65
2023-02-11T05:40:46.667Z,23.55
2023-02-11T05:44:50.544Z,23.45
2023-02-11T05:48:52.719Z,23.77
2023-02-11T05:52:54.408Z,23.55
2023-02-11T05:56:56.383Z,24.75
2023-02-11T06:00:58.108Z,24.60
2023-02-11T06:05:00.004Z,25.70
2023-02-11T06:09:01.732Z,24.37
2023-02-11T06:13:03.541Z,24.55
2023-02-11T06:17:05.272Z,24.73
2023-02-11T06:21:08.819Z,25.50
2023-02-11T06:25:11.208Z,25.65
2023-02-11T06:29:13.876Z,24.70
2023-02-11T06:33:15.806Z,25.10
2023-02-11T06:37:17.516Z,24.52
2023-02-11T06:41:20.261Z,25.00
2023-02-11T06:45:21.995Z,26.17
2023-02-11T06:49:23.704Z,25.02
2023-02-11T06:53:25.381Z,25.95
2023-02-11T06:57:27.086Z,25.52
2023-02-11T07:01:28.819Z,25.27
2023-02-11T07:05:30.552Z,25.77
2023-02-11T07:09:32.481Z,25.90
2023-02-11T07:13:34.155Z,25.60
2023-02-11T07:17:36.131Z,25.70
2023-02-11T07:21:37.841Z,24.45
2023-02-11T07:25:39.518Z,25.17
2023-02-11T07:29:42.848Z,24.42
2023-02-11T07:33:45.803Z,25.45
2023-02-11T07:37:47.527Z,24.77
2023-02-11T07:41:49.308Z,23.60
2023-02-11T07:45:51.201Z,23.90
2023-02-11T07:49:56.207Z,23.02
2023-02-11T07:54:00.132Z,24.42
2023-02-11T07:58:01.869Z,24.12
2023-02-11T08:02:03.978Z,23.33
2023-02-11T08:06:07.899Z,25.02
2023-02-11T08:10:09.731Z,23.33
2023-02-11T08:14:12.305Z,24.25
2023-02-11T08:18:14.082Z,24.30
2023-02-11T08:22:15.741Z,23.83
2023-02-11T08:26:23.374Z,25.12
2023-02-11T08:30:27.196Z,24.60
2023-02-11T08:34:29.214Z,24.27
2023-02-11T08:38:30.870Z,25.17
2023-02-11T08:42:32.704Z,24.80
2023-02-11T08:46:34.642Z,23.95
2023-02-11T08:50:39.209Z,25.85
2023-02-11T08:54:41.017Z,25.67
2023-02-11T08:58:43.333Z,24.52
2023-02-11T09:02:45.035Z,24.15
2023-02-11T09:06:46.817Z,24.27
2023-02-11T09:10:48.987Z,25.45
2023-02-11T09:14:50.918Z,24.25
2023-02-11T09:18:53.645Z,24.92
2023-02-11T09:22:58.380Z,25.17
2023-02-11T09:27:00.186Z,25.35
2023-02-11T09:31:09.671Z,25.83
2023-02-11T09:35:11.472Z,25.62
2023-02-11T09:39:17.066Z,26.33
2023-02-11T09:43:22.576Z,27.37
2023-02-11T09:47:30.304Z,23.30
2023-02-11T09:51:54.325Z,28.02
2023-02-11T09:55:59.956Z,26.77
2023-02-11T10:00:03.672Z,26.80
2023-02-11T10:04:22.977Z,25.75
2023-02-11T10:08:30.870Z,28.50
2023-02-11T10:13:14.062Z,27.02
2023-02-11T10:17:27.841Z,27.27
2023-02-11T10:21:43.645Z,26.08
2023-02-11T10:25:50.648Z,27.25
2023-02-11T10:30:08.456Z,27.23
2023-02-11T10:34:11.732Z,27.42
2023-02-11T10:38:13.418Z,27.60
2023-02-11T10:42:15.241Z,27.13
2023-02-11T10:46:20.935Z,25.37
2023-02-11T10:50:29.851Z,26.60
2023-02-11T10:54:31.520Z,26.73
2023-02-11T10:58:54.365Z,26.40
2023-02-11T11:02:58.967Z,25.80
2023-02-11T11:07:18.969Z,28.08
2023-02-11T11:11:23.550Z,27.05
2023-02-11T11:15:28.189Z,26.83
2023-02-11T11:19:30.231Z,26.90
2023-02-11T11:23:32.374Z,27.67
2023-02-11T11:27:34.109Z,27.70
2023-02-11T11:31:54.390Z,26.77
2023-02-11T11:36:00.864Z,27.15
2023-02-11T11:40:11.135Z,27.70
2023-02-11T11:44:27.652Z,26.60
2023-02-11T11:48:37.099Z,27.87
2023-02-11T11:52:41.932Z,27.52
2023-02-11T11:56:55.571Z,28.27
2023-02-11T12:01:19.262Z,28.80
2023-02-11T12:05:45.506Z,26.87
2023-02-11T12:10:08.523Z,29.08
2023-02-11T12:14:24.787Z,27.75
2023-02-11T12:18:50.750Z,28.83
2023-02-11T12:23:17.148Z,28.15
2023-02-11T12:27:32.942Z,27.58
2023-02-11T12:32:16.491Z,26.70
2023-02-11T12:36:34.540Z,27.85
2023-02-11T12:40:46.844Z,28.52
2023-02-11T12:45:10.980Z,26.48
2023-02-11T12:49:46.567Z,26.90
2023-02-11T12:54:14.539Z,27.70
2023-02-11T12:58:29.700Z,28.20
2023-02-11T13:03:01.961Z,28.58
2023-02-11T13:07:11.535Z,27.50
2023-02-11T13:11:26.805Z,28.25
2023-02-11T13:15:30.174Z,28.05
2023-02-11T13:19:42.468Z,27.42
2023-02-11T13:24:05.349Z,28.73
2023-02-11T13:28:20.814Z,28.17
2023-02-11T13:32:22.534Z,28.38
2023-02-11T13:36:26.595Z,28.60
2023-02-11T13:40:33.066Z,28.05
2023-02-11T13:44:35.102Z,28.57
2023-02-11T13:48:40.021Z,28.62
2023-02-11T13:52:42.650Z,29.60
2023-02-11T13:56:46.178Z,29.30
2023-02-11T14:00:50.881Z,31.23
2023-02-11T14:05:23.702Z,29.90
2023-02-11T14:09:38.596Z,28.33
2023-02-11T14:13:48.960Z,30.40
2023-02-11T14:17:52.335Z,29.85
2023-02-11T14:22:06.249Z,29.90
2023-02-11T14:26:42.394Z,28.58
2023-02-11T14:31:10.348Z,28.90
2023-02-11T14:35:39.517Z,28.98
2023-02-11T14:39:52.447Z,29.65
2023-02-11T14:43:58.458Z,28.48
2023-02-11T14:48:08.000Z,27.75
2023-02-11T14:52:29.842Z,28.80
2023-02-11T14:56:34.252Z,30.00
2023-02-11T15:00:35.961Z,30.45
2023-02-11T15:04:39.858Z,29.23
2023-02-11T15:08:46.766Z,27.27
2023-02-11T15:12:49.899Z,28.73
2023-02-11T15:16:54.137Z,28.60
2023-02-11T15:20:55.944Z,29.00
2023-02-11T15:24:59.190Z,29.17
2023-02-11T15:29:00.922Z,29.55
2023-02-11T15:33:05.447Z,29.92
2023-02-11T15:37:07.456Z,34.22
2023-02-11T15:41:37.428Z,30.65
2023-02-11T15:45:54.185Z,31.48
2023-02-11T15:49:55.916Z,30.43
2023-02-11T15:54:00.206Z,29.40
2023-02-11T15:58:02.178Z,29.42
2023-02-11T16:02:34.119Z,28.17
2023-02-11T16:06:41.093Z,29.83
2023-02-11T16:11:03.169Z,30.60
2023-02-11T16:15:33.103Z,29.87
2023-02-11T16:19:36.438Z,30.17
2023-02-11T16:23:44.055Z,28.00
2023-02-11T16:27:49.825Z,29.80
2023-02-11T16:31:53.534Z,30.00
2023-02-11T16:35:55.487Z,28.70
2023-02-11T16:39:58.117Z,29.90
2023-02-11T16:43:59.809Z,29.15
2023-02-11T16:48:02.557Z,30.90
2023-02-11T16:52:08.178Z,29.70
2023-02-11T16:56:17.354Z,29.27
2023-02-11T17:00:19.609Z,32.05
2023-02-11T17:04:28.018Z,32.15
2023-02-11T17:08:29.875Z,29.30
2023-02-11T17:12:31.558Z,31.23
2023-02-11T17:16:33.728Z,32.38
2023-02-11T17:20:35.436Z,30.75
2023-02-11T17:24:37.633Z,32.25
2023-02-11T17:28:39.383Z,31.45
2023-02-11T17:32:41.087Z,34.15
2023-02-11T17:36:42.776Z,33.10
2023-02-11T17:40:44.438Z,33.60
2023-02-11T17:44:46.394Z,34.05
2023-02-11T17:48:48.139Z,34.47
2023-02-11T17:52:49.835Z,34.80
2023-02-11T17:56:55.100Z,36.97
2023-02-11T18:05:00.970Z,34.88
2023-02-11T18:09:04.234Z,35.17
2023-02-11T18:13:05.965Z,37.92
2023-02-11T18:17:07.780Z,38.95
2023-02-11T18:21:14.480Z,38.33
2023-02-11T18:25:17.326Z,37.30
2023-02-11T18:29:19.269Z,36.00
2023-02-11T18:33:20.936Z,43.58
2023-02-11T18:37:22.646Z,38.38
2023-02-11T18:41:24.337Z,38.35
2023-02-11T18:45:28.998Z,39.35
2023-02-11T18:49:30.790Z,37.63
2023-02-11T18:53:32.460Z,39.08
2023-02-11T18:57:34.207Z,40.05
2023-02-11T19:01:36.056Z,39.20
2023-02-11T19:05:45.740Z,38.95
2023-02-11T19:09:48.463Z,39.85
2023-02-11T19:13:51.232Z,39.17
2023-02-11T19:17:53.186Z,40.03
2023-02-11T19:21:55.333Z,39.88
2023-02-11T19:25:57.206Z,38.45
2023-02-11T19:29:58.901Z,38.53
2023-02-11T19:34:01.722Z,38.95
2023-02-11T19:38:04.863Z,38.78
2023-02-11T19:42:06.640Z,40.28
2023-02-11T19:46:08.497Z,41.50
2023-02-11T19:50:10.727Z,40.10
2023-02-11T19:54:12.410Z,39.97
2023-02-11T19:58:16.012Z,41.47
2023-02-11T20:02:18.667Z,42.78
2023-02-11T20:06:23.628Z,39.85
2023-02-11T20:10:25.750Z,40.75
2023-02-11T20:14:28.146Z,38.67
2023-02-11T20:18:29.943Z,40.83
2023-02-11T20:22:31.674Z,40.35
2023-02-11T20:26:34.774Z,41.17
2023-02-11T20:30:36.525Z,41.95
2023-02-11T20:34:38.179Z,41.13
2023-02-11T20:38:40.474Z,40.35
2023-02-11T20:42:42.199Z,44.55
2023-02-11T20:46:48.620Z,42.35
2023-02-11T20:50:50.266Z,43.40
2023-02-11T20:54:51.952Z,40.67
2023-02-11T20:58:53.630Z,39.58
2023-02-11T21:02:55.400Z,36.80
2023-02-11T21:06:59.731Z,39.20
2023-02-11T21:11:01.901Z,41.37
2023-02-11T21:15:05.420Z,39.35
2023-02-11T21:19:07.804Z,40.12
2023-02-11T21:23:09.516Z,38.90
2023-02-11T21:27:11.194Z,40.42
2023-02-11T21:31:22.950Z,39.50
2023-02-11T21:35:25.789Z,41.47
2023-02-11T21:39:27.479Z,38.45
2023-02-11T21:43:29.162Z,38.83
2023-02-11T21:47:31.546Z,40.75
2023-02-11T21:51:33.263Z,39.72
2023-02-11T21:55:36.002Z,39.33
2023-02-11T21:59:37.740Z,41.88
2023-02-11T22:03:39.680Z,42.13
2023-02-11T22:07:41.384Z,39.65
2023-02-11T22:11:43.145Z,42.62
2023-02-11T22:15:44.882Z,41.03
2023-02-11T22:19:46.590Z,38.08
2023-02-11T22:23:49.215Z,38.50
2023-02-11T22:27:50.903Z,38.53
2023-02-11T22:31:52.620Z,39.75
2023-02-11T22:36:02.743Z,40.70
2023-02-11T22:40:04.914Z,38.50
2023-02-11T22:44:07.005Z,37.65
2023-02-11T22:48:08.728Z,42.65
2023-02-11T22:52:10.440Z,39.28
2023-02-11T22:56:15.648Z,41.85
2023-02-11T23:00:19.213Z,41.08
2023-02-11T23:04:20.948Z,38.08
2023-02-11T23:08:22.786Z,36.58
2023-02-11T23:12:24.540Z,34.47
2023-02-11T23:16:29.252Z,32.47
2023-02-11T23:20:31.028Z,34.75
2023-02-11T23:24:32.845Z,34.65
2023-02-11T23:28:34.549Z,33.70
2023-02-11T23:32:39.120Z,32.20
2023-02-11T23:36:40.810Z,33.33
2023-02-11T23:40:42.782Z,32.33
2023-02-11T23:44:44.432Z,32.13
2023-02-11T23:48:46.101Z,31.40
2023-02-11T23:52:48.041Z,32.33
2023-02-11T23:56:49.734Z,30.67
